Time;durP1;ratioP1;P1;durP2;ratioP2;P2;SDS_P1;SDS_P2;PMS_P1;PMS_P2;Temp;Humidity;BMP_temperature;BMP_pressure;BME280_temperature;BME280_humidity;BME280_pressure;Samples;Min_cycle;Max_cycle;Signal;HPM_P1;HPM_P2
2023/10/01 00:00:57;;;;;;;38.80;19.58;;;;;;;;;;2075307;28;20029;-61
2023/10/01 00:01:58;;;;;;;37.83;20.13;;;;;;;;;;2074874;28;20042;-61
2023/10/01 00:02:59;;;;;;;36.58;18.58;;;;;;;;;;2074755;28;20033;-62
2023/10/01 00:04:01;;;;;;;41.83;21.92;;;;;;;;;;2074743;28;20501;-61
2023/10/01 00:05:03;;;;;;;38.72;20.67;;;;;;;;;;2074702;28;20053;-62
2023/10/01 00:06:04;;;;;;;39.72;21.15;;;;;;;;;;2074771;28;20045;-61
2023/10/01 00:07:05;;;;;;;38.92;20.55;;;;;;;;;;2074207;28;20422;-61
2023/10/01 00:08:08;;;;;;;36.65;20.77;;;;;;;;;;2074204;28;20042;-61
2023/10/01 00:09:09;;;;;;;36.65;19.80;;;;;;;;;;2074462;28;20050;-61
2023/10/01 00:10:11;;;;;;;42.15;21.30;;;;;;;;;;2074423;28;20054;-61
2023/10/01 00:11:11;;;;;;;39.88;20.23;;;;;;;;;;2074882;28;20033;-61
2023/10/01 00:12:12;;;;;;;37.45;20.65;;;;;;;;;;2074934;28;20038;-61
2023/10/01 00:13:14;;;;;;;39.15;20.25;;;;;;;;;;2074284;28;20046;-61
2023/10/01 00:14:16;;;;;;;39.88;20.80;;;;;;;;;;2074663;28;20037;-61
2023/10/01 00:15:17;;;;;;;39.58;20.40;;;;;;;;;;2074291;28;20042;-61
2023/10/01 00:16:18;;;;;;;38.15;20.70;;;;;;;;;;2075148;28;20049;-62
2023/10/01 00:17:22;;;;;;;36.20;19.92;;;;;;;;;;2074573;28;20057;-62
2023/10/01 00:18:22;;;;;;;46.33;21.27;;;;;;;;;;2074761;28;20034;-61
2023/10/01 00:19:23;;;;;;;41.95;21.30;;;;;;;;;;2074687;28;20038;-62
2023/10/01 00:20:24;;;;;;;43.25;22.67;;;;;;;;;;2074838;28;20504;-61
2023/10/01 00:21:27;;;;;;;41.35;22.40;;;;;;;;;;2074606;28;20050;-61
2023/10/01 00:22:31;;;;;;;37.58;21.30;;;;;;;;;;2074468;28;20046;-61
2023/10/01 00:23:31;;;;;;;37.10;20.77;;;;;;;;;;2074463;28;20398;-61
2023/10/01 00:24:33;;;;;;;40.85;21.27;;;;;;;;;;2074106;28;20050;-61
2023/10/01 00:25:37;;;;;;;37.38;20.42;;;;;;;;;;2074875;28;20459;-61
2023/10/01 00:26:37;;;;;;;41.38;20.98;;;;;;;;;;2074087;28;20038;-61
2023/10/01 00:27:38;;;;;;;39.42;21.13;;;;;;;;;;2074607;28;20045;-61
2023/10/01 00:28:39;;;;;;;37.28;19.60;;;;;;;;;;2074528;28;20053;-62
2023/10/01 00:29:40;;;;;;;42.00;22.08;;;;;;;;;;2074544;28;20073;-61
2023/10/01 00:30:41;;;;;;;37.17;19.67;;;;;;;;;;2074250;28;20061;-62
2023/10/01 00:31:45;;;;;;;38.85;22.15;;;;;;;;;;2073964;28;20034;-61
2023/10/01 00:32:46;;;;;;;37.65;20.25;;;;;;;;;;2073946;28;20382;-61
2023/10/01 00:33:47;;;;;;;41.13;20.40;;;;;;;;;;2072949;28;20041;-61
2023/10/01 00:34:47;;;;;;;39.28;20.35;;;;;;;;;;2072884;28;20046;-61
2023/10/01 00:35:48;;;;;;;40.83;20.10;;;;;;;;;;2073954;28;20072;-62
2023/10/01 00:36:49;;;;;;;38.47;21.20;;;;;;;;;;2073867;28;20045;-61
2023/10/01 00:37:50;;;;;;;42.65;22.02;;;;;;;;;;2074013;28;20038;-61
2023/10/01 00:38:51;;;;;;;47.00;22.02;;;;;;;;;;2073234;28;20042;-61
2023/10/01 00:39:54;;;;;;;39.30;20.70;;;;;;;;;;2065781;28;20395;-62
2023/10/01 00:40:55;;;;;;;37.67;21.45;;;;;;;;;;2073500;28;20523;-62
2023/10/01 00:41:56;;;;;;;41.30;22.48;;;;;;;;;;2073937;28;20121;-61
2023/10/01 00:42:57;;;;;;;42.30;21.73;;;;;;;;;;2074201;28;20046;-61
2023/10/01 00:44:02;;;;;;;41.70;20.98;;;;;;;;;;2074731;28;20033;-62
2023/10/01 00:45:03;;;;;;;43.20;20.90;;;;;;;;;;2073888;28;20041;-61
2023/10/01 00:46:04;;;;;;;38.13;21.20;;;;;;;;;;2073616;28;20060;-61
2023/10/01 00:47:05;;;;;;;39.85;21.17;;;;;;;;;;2074050;28;20057;-61
2023/10/01 00:48:06;;;;;;;41.78;22.52;;;;;;;;;;2074413;28;20493;-61
2023/10/01 00:49:07;;;;;;;39.67;23.13;;;;;;;;;;2073450;28;20577;-61
2023/10/01 00:50:08;;;;;;;41.28;22.02;;;;;;;;;;2073088;28;20422;-62
2023/10/01 00:51:10;;;;;;;48.13;22.23;;;;;;;;;;2073875;28;20050;-61
2023/10/01 00:52:11;;;;;;;38.33;20.98;;;;;;;;;;2065809;28;20038;-61
2023/10/01 00:53:12;;;;;;;42.70;22.05;;;;;;;;;;2073482;28;20045;-61
2023/10/01 00:54:12;;;;;;;39.20;21.42;;;;;;;;;;2065404;28;20103;-62
2023/10/01 00:55:13;;;;;;;43.63;22.38;;;;;;;;;;2064655;28;20054;-62
2023/10/01 00:56:14;;;;;;;37.80;20.58;;;;;;;;;;2074177;28;20459;-62
2023/10/01 00:57:15;;;;;;;41.90;22.65;;;;;;;;;;2073667;28;20046;-61
2023/10/01 00:58:17;;;;;;;44.78;23.20;;;;;;;;;;2073180;28;20093;-62
2023/10/01 00:59:18;;;;;;;40.35;21.60;;;;;;;;;;2073236;28;20497;-61
2023/10/01 01:00:19;;;;;;;44.65;23.25;;;;;;;;;;2073936;28;20049;-61
2023/10/01 01:01:23;;;;;;;45.45;23.38;;;;;;;;;;2073793;28;20050;-61
2023/10/01 01:02:24;;;;;;;41.47;22.25;;;;;;;;;;2074335;28;20106;-61
2023/10/01 01:03:25;;;;;;;48.33;24.15;;;;;;;;;;2073886;28;20153;-61
2023/10/01 01:04:29;;;;;;;47.38;23.10;;;;;;;;;;2074298;28;20048;-61
2023/10/01 01:05:36;;;;;;;47.15;21.83;;;;;;;;;;2073461;28;20045;-61
2023/10/01 01:06:39;;;;;;;41.22;22.13;;;;;;;;;;2073021;28;20050;-61
2023/10/01 01:07:40;;;;;;;38.63;22.50;;;;;;;;;;2074296;28;20036;-61
2023/10/01 01:08:47;;;;;;;43.58;23.85;;;;;;;;;;2074429;28;20049;-61
2023/10/01 01:09:48;;;;;;;38.80;22.13;;;;;;;;;;2073902;28;20048;-61
2023/10/01 01:10:50;;;;;;;41.10;21.90;;;;;;;;;;2074240;28;20033;-62
2023/10/01 01:11:52;;;;;;;37.25;21.38;;;;;;;;;;2074399;28;20417;-61
2023/10/01 01:12:54;;;;;;;41.38;22.02;;;;;;;;;;2073616;28;20041;-61
2023/10/01 01:13:57;;;;;;;41.65;22.23;;;;;;;;;;2064668;28;20031;-61
2023/10/01 01:14:58;;;;;;;39.85;21.60;;;;;;;;;;2072479;28;20055;-61
2023/10/01 01:16:00;;;;;;;47.10;24.25;;;;;;;;;;2074128;28;20056;-61
2023/10/01 01:17:00;;;;;;;45.08;22.48;;;;;;;;;;2074351;28;20417;-61
2023/10/01 01:18:06;;;;;;;42.15;22.65;;;;;;;;;;2073598;28;20053;-61
2023/10/01 01:19:09;;;;;;;42.80;21.52;;;;;;;;;;2073106;28;20050;-61
2023/10/01 01:20:10;;;;;;;39.97;22.10;;;;;;;;;;2074122;28;20041;-61
2023/10/01 01:21:10;;;;;;;44.90;22.45;;;;;;;;;;2072886;28;20088;-61
2023/10/01 01:22:28;;;;;;;40.97;22.40;;;;;;;;;;2073755;28;20073;-61
2023/10/01 01:23:30;;;;;;;46.78;23.17;;;;;;;;;;2073390;28;20046;-61
2023/10/01 01:24:31;;;;;;;39.90;22.17;;;;;;;;;;2073015;28;20050;-61
2023/10/01 01:25:32;;;;;;;38.67;21.60;;;;;;;;;;2074383;28;20124;-61
2023/10/01 01:26:33;;;;;;;40.78;21.80;;;;;;;;;;2074194;28;20025;-61
2023/10/01 01:27:34;;;;;;;45.38;22.95;;;;;;;;;;2073611;28;20053;-61
2023/10/01 01:28:36;;;;;;;37.33;21.15;;;;;;;;;;2073841;28;20042;-61
2023/10/01 01:29:44;;;;;;;48.40;23.08;;;;;;;;;;2074170;28;20033;-61
2023/10/01 01:30:47;;;;;;;38.65;21.00;;;;;;;;;;2073640;28;20523;-62
2023/10/01 01:32:02;;;;;;;41.13;21.55;;;;;;;;;;2065607;28;20038;-61
2023/10/01 01:33:03;;;;;;;41.80;21.60;;;;;;;;;;2074080;28;20029;-62
2023/10/01 01:34:05;;;;;;;48.75;22.33;;;;;;;;;;2073169;28;20049;-61
2023/10/01 01:35:06;;;;;;;43.10;21.70;;;;;;;;;;2065772;28;20046;-61
2023/10/01 01:36:09;;;;;;;38.97;22.08;;;;;;;;;;2073693;28;20045;-61
2023/10/01 01:37:19;;;;;;;41.95;21.67;;;;;;;;;;2073575;28;20041;-61
2023/10/01 01:38:23;;;;;;;45.13;21.48;;;;;;;;;;2073534;28;20050;-61
2023/10/01 01:39:32;;;;;;;40.67;20.92;;;;;;;;;;2073902;28;20050;-61
2023/10/01 01:40:35;;;;;;;44.00;22.38;;;;;;;;;;2074279;28;20375;-61
2023/10/01 01:41:42;;;;;;;42.50;22.52;;;;;;;;;;2073404;28;20041;-61
2023/10/01 01:42:44;;;;;;;48.67;23.23;;;;;;;;;;2073021;28;20108;-61
2023/10/01 01:43:48;;;;;;;51.40;22.80;;;;;;;;;;2074035;28;20034;-61
2023/10/01 01:45:14;;;;;;;42.72;22.52;;;;;;;;;;2074031;28;20030;-61
2023/10/01 01:46:11;;;;;;;45.20;22.50;;;;;;;;;;2074044;28;20042;-61
2023/10/01 01:47:12;;;;;;;44.67;22.65;;;;;;;;;;2073477;28;20401;-61
2023/10/01 01:48:26;;;;;;;41.33;20.92;;;;;;;;;;2074089;28;20030;-61
2023/10/01 01:49:27;;;;;;;36.80;20.08;;;;;;;;;;2074170;28;20049;-61
2023/10/01 01:50:28;;;;;;;44.15;21.90;;;;;;;;;;2073323;28;20046;-62
2023/10/01 01:51:29;;;;;;;42.92;21.70;;;;;;;;;;2073444;28;20045;-61
2023/10/01 01:52:29;;;;;;;40.70;21.25;;;;;;;;;;2073662;28;20048;-61
2023/10/01 01:53:41;;;;;;;46.63;22.08;;;;;;;;;;2073563;28;20042;-61
2023/10/01 01:54:43;;;;;;;42.95;21.63;;;;;;;;;;2072898;28;20046;-62
2023/10/01 01:55:44;;;;;;;44.63;21.73;;;;;;;;;;2072461;28;20045;-61
2023/10/01 01:56:46;;;;;;;44.38;22.70;;;;;;;;;;2072462;28;20080;-61
2023/10/01 01:58:02;;;;;;;46.13;23.13;;;;;;;;;;2064725;28;20045;-61
2023/10/01 01:59:13;;;;;;;41.83;22.02;;;;;;;;;;2072838;28;20041;-61
2023/10/01 02:00:14;;;;;;;37.90;21.83;;;;;;;;;;2072837;28;20042;-63
2023/10/01 02:02:16;;;;;;;39.10;22.00;;;;;;;;;;2073756;28;20048;-61
2023/10/01 02:03:18;;;;;;;42.03;23.23;;;;;;;;;;2074029;28;20041;-61
2023/10/01 02:04:19;;;;;;;45.65;23.38;;;;;;;;;;2073591;28;20045;-61
2023/10/01 02:05:20;;;;;;;43.67;22.30;;;;;;;;;;2073466;28;20042;-61
2023/10/01 02:06:27;;;;;;;43.80;23.15;;;;;;;;;;2065205;28;20165;-61
2023/10/01 02:07:28;;;;;;;44.72;21.40;;;;;;;;;;2066208;28;20049;-61
2023/10/01 02:08:44;;;;;;;49.08;23.30;;;;;;;;;;2073018;28;20042;-61
2023/10/01 02:09:45;;;;;;;44.78;23.30;;;;;;;;;;2073658;28;20041;-61
2023/10/01 02:10:46;;;;;;;41.83;21.30;;;;;;;;;;2073832;28;20038;-61
2023/10/01 02:11:47;;;;;;;44.75;22.75;;;;;;;;;;2073478;28;20037;-61
2023/10/01 02:12:48;;;;;;;43.97;23.00;;;;;;;;;;2073025;28;20494;-61
2023/10/01 02:13:54;;;;;;;47.72;23.73;;;;;;;;;;2073834;28;20036;-61
2023/10/01 02:14:56;;;;;;;46.97;23.17;;;;;;;;;;2073415;28;20052;-60
2023/10/01 02:16:18;;;;;;;45.28;23.85;;;;;;;;;;2073536;28;20089;-61
2023/10/01 02:17:17;;;;;;;48.35;24.05;;;;;;;;;;2073605;28;20084;-61
2023/10/01 02:18:18;;;;;;;46.83;24.05;;;;;;;;;;2073493;28;20045;-61
2023/10/01 02:19:19;;;;;;;47.13;22.92;;;;;;;;;;2073499;28;20442;-61
2023/10/01 02:20:27;;;;;;;51.10;24.38;;;;;;;;;;2073353;28;20359;-61
2023/10/01 02:21:43;;;;;;;50.42;24.17;;;;;;;;;;2073266;28;20049;-61
2023/10/01 02:22:43;;;;;;;52.13;23.80;;;;;;;;;;2073996;28;20026;-61
2023/10/01 02:23:44;;;;;;;52.22;25.58;;;;;;;;;;2073175;28;20083;-61
2023/10/01 02:24:45;;;;;;;47.40;24.10;;;;;;;;;;2065726;28;20063;-73
2023/10/01 02:25:46;;;;;;;46.95;23.63;;;;;;;;;;2074218;28;20077;-61
2023/10/01 02:26:46;;;;;;;42.88;23.35;;;;;;;;;;2075243;28;20110;-64
2023/10/01 02:28:10;;;;;;;41.80;22.38;;;;;;;;;;2074480;28;20041;-64
2023/10/01 02:29:12;;;;;;;46.80;23.35;;;;;;;;;;2073515;28;20042;-61
2023/10/01 02:30:16;;;;;;;40.40;22.45;;;;;;;;;;2075141;28;20037;-61
2023/10/01 02:31:17;;;;;;;48.70;23.42;;;;;;;;;;2073924;28;20382;-63
2023/10/01 02:32:18;;;;;;;44.35;23.13;;;;;;;;;;2074018;28;20057;-61
2023/10/01 02:33:18;;;;;;;46.72;22.52;;;;;;;;;;2072668;28;20053;-61
2023/10/01 02:34:20;;;;;;;46.25;23.60;;;;;;;;;;2065165;28;20039;-61
2023/10/01 02:35:35;;;;;;;48.63;22.95;;;;;;;;;;2064386;28;20402;-61
2023/10/01 02:36:36;;;;;;;44.95;23.13;;;;;;;;;;2073363;28;20481;-61
2023/10/01 02:37:42;;;;;;;45.83;23.60;;;;;;;;;;2073735;28;20038;-61
2023/10/01 02:38:45;;;;;;;43.63;22.92;;;;;;;;;;2073209;28;20034;-61
2023/10/01 02:39:46;;;;;;;48.92;23.58;;;;;;;;;;2073919;28;20033;-61
2023/10/01 02:40:48;;;;;;;51.53;24.88;;;;;;;;;;2073670;28;20034;-61
2023/10/01 02:42:09;;;;;;;51.63;23.80;;;;;;;;;;2073485;28;20038;-61
2023/10/01 02:43:13;;;;;;;53.83;23.55;;;;;;;;;;2073848;28;20048;-61
2023/10/01 02:44:14;;;;;;;41.85;23.13;;;;;;;;;;2073514;28;20041;-61
2023/10/01 02:45:31;;;;;;;45.35;22.63;;;;;;;;;;2073148;28;20053;-61
2023/10/01 02:46:31;;;;;;;43.53;22.27;;;;;;;;;;2073316;28;20058;-61
2023/10/01 02:47:34;;;;;;;47.60;22.58;;;;;;;;;;2073423;28;20054;-61
2023/10/01 02:48:35;;;;;;;42.20;22.65;;;;;;;;;;2072482;28;20038;-62
2023/10/01 02:49:47;;;;;;;43.55;23.60;;;;;;;;;;2073157;28;20046;-61
2023/10/01 02:50:54;;;;;;;40.50;21.90;;;;;;;;;;2073243;28;20045;-61
2023/10/01 02:51:59;;;;;;;42.10;21.67;;;;;;;;;;2072725;28;20134;-61
2023/10/01 02:53:02;;;;;;;42.58;21.35;;;;;;;;;;2073427;28;20048;-61
2023/10/01 02:54:06;;;;;;;42.25;21.58;;;;;;;;;;2073472;28;20433;-61
2023/10/01 02:55:17;;;;;;;45.67;22.65;;;;;;;;;;2073466;28;20042;-62
2023/10/01 02:56:18;;;;;;;40.97;21.65;;;;;;;;;;2073082;28;20046;-62
2023/10/01 02:57:26;;;;;;;50.13;22.20;;;;;;;;;;2073158;28;20053;-61
2023/10/01 02:58:27;;;;;;;43.83;22.27;;;;;;;;;;2075367;28;20037;-61
2023/10/01 02:59:28;;;;;;;41.05;22.15;;;;;;;;;;2075452;28;20037;-61
2023/10/01 03:00:33;;;;;;;42.95;22.70;;;;;;;;;;2074724;28;20044;-61
2023/10/01 03:01:34;;;;;;;42.35;22.75;;;;;;;;;;2058795;28;20050;-61
2023/10/01 03:02:38;;;;;;;42.85;22.45;;;;;;;;;;2058661;28;20427;-62
2023/10/01 03:03:39;;;;;;;45.17;21.35;;;;;;;;;;2074846;28;20026;-61
2023/10/01 03:04:40;;;;;;;47.13;23.10;;;;;;;;;;2074745;28;20391;-61
2023/10/01 03:05:46;;;;;;;42.92;21.95;;;;;;;;;;2074978;28;20038;-61
2023/10/01 03:06:55;;;;;;;48.72;22.25;;;;;;;;;;2075339;28;20053;-61
2023/10/01 03:07:56;;;;;;;45.17;21.33;;;;;;;;;;2073878;28;20042;-61
2023/10/01 03:10:00;;;;;;;46.78;23.25;;;;;;;;;;2074065;28;20038;-61
2023/10/01 03:11:04;;;;;;;45.58;23.05;;;;;;;;;;2075094;28;20038;-61
2023/10/01 03:13:30;;;;;;;42.65;21.25;;;;;;;;;;2074151;28;20048;-61
2023/10/01 03:14:34;;;;;;;49.20;21.98;;;;;;;;;;2074891;28;20059;-61
2023/10/01 03:15:35;;;;;;;46.60;21.83;;;;;;;;;;2075314;28;20161;-61
2023/10/01 03:16:52;;;;;;;55.15;22.08;;;;;;;;;;2074707;28;20621;-61
2023/10/01 03:17:57;;;;;;;43.35;22.17;;;;;;;;;;2074493;28;20046;-61
2023/10/01 03:19:12;;;;;;;45.50;22.85;;;;;;;;;;2075211;28;20046;-61
2023/10/01 03:21:07;;;;;;;49.00;23.08;;;;;;;;;;2074021;28;20046;-61
2023/10/01 03:24:25;;;;;;;54.92;25.17;;;;;;;;;;2057736;28;20042;-61
2023/10/01 03:25:29;;;;;;;45.20;23.70;;;;;;;;;;2061461;28;20526;-61
2023/10/01 03:26:33;;;;;;;51.08;24.40;;;;;;;;;;2074886;28;20042;-61
2023/10/01 03:27:38;;;;;;;54.47;24.52;;;;;;;;;;2074507;28;20473;-61
2023/10/01 03:30:03;;;;;;;;;;;;;;;;;;2075514;28;20041;-61
2023/10/01 03:31:06;;;;;;;48.45;22.83;;;;;;;;;;2074826;28;19921;-61
2023/10/01 03:33:29;;;;;;;44.67;22.60;;;;;;;;;;2075210;28;20042;-61
2023/10/01 03:34:30;;;;;;;50.20;23.70;;;;;;;;;;2075174;28;20048;-61
2023/10/01 03:35:31;;;;;;;48.30;22.23;;;;;;;;;;2074554;28;20099;-61
2023/10/01 03:36:32;;;;;;;50.22;23.23;;;;;;;;;;2074826;28;20061;-61
2023/10/01 03:37:39;;;;;;;44.95;22.42;;;;;;;;;;2074710;28;20049;-61
2023/10/01 03:38:42;;;;;;;47.55;22.25;;;;;;;;;;2074771;28;20046;-61
2023/10/01 03:39:43;;;;;;;40.40;21.08;;;;;;;;;;2074019;28;20042;-61
2023/10/01 03:41:07;;;;;;;47.67;21.38;;;;;;;;;;2074129;28;20052;-61
2023/10/01 03:43:18;;;;;;;47.83;22.15;;;;;;;;;;2074632;28;20046;-61
2023/10/01 03:44:42;;;;;;;43.10;21.85;;;;;;;;;;2074684;28;20501;-61
2023/10/01 03:45:52;;;;;;;44.63;21.67;;;;;;;;;;2075002;28;20065;-61
2023/10/01 03:46:55;;;;;;;48.22;22.25;;;;;;;;;;2074716;28;20030;-61
2023/10/01 03:47:58;;;;;;;43.70;22.65;;;;;;;;;;2074561;28;20034;-61
2023/10/01 03:49:33;;;;;;;43.10;23.15;;;;;;;;;;2074293;28;20398;-61
2023/10/01 03:50:25;;;;;;;46.83;22.77;;;;;;;;;;2074736;28;20061;-61
2023/10/01 03:52:54;;;;;;;43.17;21.30;;;;;;;;;;2075038;28;20045;-61
2023/10/01 03:53:59;;;;;;;46.30;21.92;;;;;;;;;;2074587;28;20045;-61
2023/10/01 03:55:15;;;;;;;44.20;21.02;;;;;;;;;;2075018;28;20045;-61
2023/10/01 03:56:16;;;;;;;46.58;22.58;;;;;;;;;;2074753;28;20050;-61
2023/10/01 03:57:19;;;;;;;42.05;20.92;;;;;;;;;;2074447;28;20042;-61
2023/10/01 03:58:25;;;;;;;46.38;21.67;;;;;;;;;;2074966;28;20489;-61
2023/10/01 03:59:32;;;;;;;42.53;21.50;;;;;;;;;;2074845;28;20045;-61
2023/10/01 04:01:58;;;;;;;45.88;23.05;;;;;;;;;;2074173;28;20049;-61
2023/10/01 04:03:00;;;;;;;50.47;22.95;;;;;;;;;;2074000;28;20046;-61
2023/10/01 04:04:01;;;;;;;47.75;23.00;;;;;;;;;;2074605;28;20065;-61
2023/10/01 04:05:06;;;;;;;47.38;22.92;;;;;;;;;;2074901;28;20080;-61
2023/10/01 04:06:07;;;;;;;45.10;20.92;;;;;;;;;;2074473;28;20054;-61
2023/10/01 04:07:11;;;;;;;50.92;22.85;;;;;;;;;;2074873;28;20034;-61
2023/10/01 04:08:12;;;;;;;44.40;22.30;;;;;;;;;;2074285;28;20050;-61
2023/10/01 04:09:18;;;;;;;44.55;22.75;;;;;;;;;;2074064;28;20038;-61
2023/10/01 04:10:28;;;;;;;44.08;22.98;;;;;;;;;;2074405;28;20049;-61
2023/10/01 04:12:54;;;;;;;42.45;21.90;;;;;;;;;;2074732;28;20038;-61
2023/10/01 04:14:08;;;;;;;43.80;21.48;;;;;;;;;;2074909;28;20033;-61
2023/10/01 04:15:09;;;;;;;44.78;22.17;;;;;;;;;;2073817;28;20052;-61
2023/10/01 04:16:15;;;;;;;44.08;21.92;;;;;;;;;;2074794;28;20394;-61
2023/10/01 04:17:17;;;;;;;42.75;22.05;;;;;;;;;;2075023;28;20493;-61
2023/10/01 04:19:19;;;;;;;42.38;22.20;;;;;;;;;;2074755;28;20390;-61
2023/10/01 04:20:19;;;;;;;42.25;20.50;;;;;;;;;;2074459;28;20049;-61
2023/10/01 04:21:25;;;;;;;43.90;22.13;;;;;;;;;;2074130;28;20504;-61
2023/10/01 04:22:27;;;;;;;41.08;21.83;;;;;;;;;;2074620;28;20038;-61
2023/10/01 04:23:36;;;;;;;41.30;21.08;;;;;;;;;;2074935;28;20033;-61
2023/10/01 04:24:37;;;;;;;43.72;20.15;;;;;;;;;;2074008;28;20489;-61
2023/10/01 04:25:38;;;;;;;41.33;20.50;;;;;;;;;;2074604;28;20053;-61
2023/10/01 04:26:38;;;;;;;42.67;20.13;;;;;;;;;;2074032;28;20121;-61
2023/10/01 04:27:42;;;;;;;40.13;21.25;;;;;;;;;;2074775;28;20037;-61
2023/10/01 04:28:46;;;;;;;40.30;21.13;;;;;;;;;;2074942;28;20370;-61
2023/10/01 04:29:57;;;;;;;38.30;19.90;;;;;;;;;;2074010;28;20045;-61
2023/10/01 04:30:57;;;;;;;43.63;20.67;;;;;;;;;;2074871;28;20037;-61
2023/10/01 04:32:01;;;;;;;40.00;20.75;;;;;;;;;;2074798;28;20486;-61
2023/10/01 04:33:17;;;;;;;42.95;20.88;;;;;;;;;;2074733;28;20034;-61
2023/10/01 04:34:18;;;;;;;41.72;19.77;;;;;;;;;;2074656;28;20034;-61
2023/10/01 04:35:19;;;;;;;36.70;18.83;;;;;;;;;;2073941;28;20042;-61
2023/10/01 04:36:20;;;;;;;40.75;20.38;;;;;;;;;;2074671;28;20033;-61
2023/10/01 04:37:41;;;;;;;39.95;20.17;;;;;;;;;;2074832;28;20034;-61
2023/10/01 04:38:43;;;;;;;37.08;19.80;;;;;;;;;;2074757;28;20034;-61
2023/10/01 04:39:44;;;;;;;38.38;18.88;;;;;;;;;;2074519;28;20046;-61
2023/10/01 04:40:46;;;;;;;41.92;20.63;;;;;;;;;;2074238;28;20037;-61
2023/10/01 04:41:47;;;;;;;38.13;18.92;;;;;;;;;;2074489;28;20038;-61
2023/10/01 04:42:49;;;;;;;41.25;19.67;;;;;;;;;;2074278;28;20042;-61
2023/10/01 04:43:59;;;;;;;44.95;20.73;;;;;;;;;;2074267;28;20037;-61
2023/10/01 04:45:00;;;;;;;43.28;21.25;;;;;;;;;;2074316;28;20045;-61
2023/10/01 04:46:03;;;;;;;37.67;18.27;;;;;;;;;;2073735;28;20052;-61
2023/10/01 04:47:31;;;;;;;42.17;19.70;;;;;;;;;;2074047;28;20046;-61
2023/10/01 04:48:24;;;;;;;37.53;17.67;;;;;;;;;;2074410;28;20065;-61
2023/10/01 04:49:31;;;;;;;40.42;19.80;;;;;;;;;;2073055;28;20132;-61
2023/10/01 04:50:32;;;;;;;37.40;19.08;;;;;;;;;;2074193;28;20425;-61
2023/10/01 04:51:44;;;;;;;43.15;18.73;;;;;;;;;;2074578;28;20037;-61
2023/10/01 04:52:45;;;;;;;40.70;19.58;;;;;;;;;;2074610;28;20038;-61
2023/10/01 04:53:46;;;;;;;36.97;18.05;;;;;;;;;;2074556;28;20479;-61
2023/10/01 04:54:49;;;;;;;38.67;19.45;;;;;;;;;;2074395;28;20406;-61
2023/10/01 04:56:05;;;;;;;41.33;19.92;;;;;;;;;;2074156;28;20042;-61
2023/10/01 04:57:06;;;;;;;45.22;20.25;;;;;;;;;;2074441;28;20104;-61
2023/10/01 04:58:14;;;;;;;42.50;19.98;;;;;;;;;;2074462;28;20038;-61
2023/10/01 04:59:15;;;;;;;48.28;22.08;;;;;;;;;;2074346;28;20363;-61
2023/10/01 05:00:21;;;;;;;44.47;20.80;;;;;;;;;;2074325;28;20056;-61
2023/10/01 05:01:25;;;;;;;40.72;20.33;;;;;;;;;;2074836;28;20044;-61
2023/10/01 05:02:26;;;;;;;41.75;19.13;;;;;;;;;;2073580;28;20057;-61
2023/10/01 05:03:38;;;;;;;36.80;19.08;;;;;;;;;;2074032;28;20402;-61
2023/10/01 05:04:41;;;;;;;40.90;19.58;;;;;;;;;;2074699;28;20036;-61
2023/10/01 05:05:48;;;;;;;42.15;19.38;;;;;;;;;;2073154;28;20128;-61
2023/10/01 05:07:00;;;;;;;35.53;19.27;;;;;;;;;;2073902;28;20053;-61
2023/10/01 05:08:01;;;;;;;38.90;18.60;;;;;;;;;;2074360;28;20069;-61
2023/10/01 05:09:02;;;;;;;40.90;19.92;;;;;;;;;;2074452;28;20049;-61
2023/10/01 05:10:04;;;;;;;40.67;20.00;;;;;;;;;;2074705;28;20072;-61
2023/10/01 05:11:11;;;;;;;42.10;20.00;;;;;;;;;;2074400;28;20034;-61
2023/10/01 05:12:12;;;;;;;37.42;19.42;;;;;;;;;;2073703;28;20050;-61
2023/10/01 05:13:13;;;;;;;41.95;19.48;;;;;;;;;;2073674;28;20482;-60
2023/10/01 05:14:15;;;;;;;38.58;19.83;;;;;;;;;;2074448;28;20045;-61
2023/10/01 05:15:21;;;;;;;43.35;20.55;;;;;;;;;;2073927;28;20069;-61
2023/10/01 05:16:26;;;;;;;41.00;19.20;;;;;;;;;;2074167;28;20054;-61
2023/10/01 05:17:30;;;;;;;38.53;18.40;;;;;;;;;;2074094;28;20052;-62
2023/10/01 05:18:33;;;;;;;37.53;18.98;;;;;;;;;;2073593;28;20057;-61
2023/10/01 05:19:37;;;;;;;41.95;20.33;;;;;;;;;;2074456;28;20030;-61
2023/10/01 05:20:38;;;;;;;38.45;19.70;;;;;;;;;;2073794;28;20049;-61
2023/10/01 05:21:46;;;;;;;39.13;20.17;;;;;;;;;;2073852;28;20064;-61
2023/10/01 05:22:50;;;;;;;38.55;20.80;;;;;;;;;;2074229;28;20385;-61
2023/10/01 05:23:55;;;;;;;41.13;19.77;;;;;;;;;;2073987;28;20390;-61
2023/10/01 05:24:56;;;;;;;39.90;18.85;;;;;;;;;;2074399;28;20369;-61
2023/10/01 05:25:57;;;;;;;39.60;19.33;;;;;;;;;;2074318;28;20049;-61
2023/10/01 05:27:00;;;;;;;35.80;18.10;;;;;;;;;;2074141;28;20030;-61
2023/10/01 05:28:03;;;;;;;43.75;20.90;;;;;;;;;;2074094;28;20034;-61
2023/10/01 05:29:06;;;;;;;44.55;20.48;;;;;;;;;;2074196;28;20060;-61
2023/10/01 05:30:32;;;;;;;43.63;19.92;;;;;;;;;;2074113;28;20045;-61
2023/10/01 05:31:29;;;;;;;39.03;18.38;;;;;;;;;;2074020;28;20371;-61
2023/10/01 05:32:48;;;;;;;32.00;17.75;;;;;;;;;;2074112;28;20479;-61
2023/10/01 05:33:51;;;;;;;33.78;17.77;;;;;;;;;;2073891;28;20045;-61
2023/10/01 05:34:52;;;;;;;39.63;19.25;;;;;;;;;;2074173;28;20033;-61
2023/10/01 05:35:57;;;;;;;34.10;17.63;;;;;;;;;;2074459;28;20041;-61
2023/10/01 05:37:08;;;;;;;35.60;17.98;;;;;;;;;;2074196;28;20045;-61
2023/10/01 05:38:10;;;;;;;31.67;16.83;;;;;;;;;;2074485;28;20026;-61
2023/10/01 05:39:11;;;;;;;29.52;15.57;;;;;;;;;;2074078;28;20033;-61
2023/10/01 05:40:15;;;;;;;35.88;17.48;;;;;;;;;;2074113;28;20037;-61
2023/10/01 05:41:29;;;;;;;35.95;16.48;;;;;;;;;;2074028;28;20050;-61
2023/10/01 05:42:31;;;;;;;31.45;16.20;;;;;;;;;;2074117;28;20034;-61
2023/10/01 05:43:37;;;;;;;35.00;16.55;;;;;;;;;;2073813;28;20072;-61
2023/10/01 05:44:42;;;;;;;30.77;14.60;;;;;;;;;;2074017;28;20048;-61
2023/10/01 05:45:44;;;;;;;30.77;15.00;;;;;;;;;;2074154;28;20433;-62
2023/10/01 05:46:46;;;;;;;29.92;13.07;;;;;;;;;;2073772;28;20394;-61
2023/10/01 05:47:54;;;;;;;28.13;15.07;;;;;;;;;;2074029;28;20038;-61
2023/10/01 05:49:00;;;;;;;27.15;13.60;;;;;;;;;;2072886;28;20058;-61
2023/10/01 05:50:08;;;;;;;25.15;12.73;;;;;;;;;;2073713;28;20041;-61
2023/10/01 05:51:11;;;;;;;23.02;12.55;;;;;;;;;;2073860;28;20050;-61
2023/10/01 05:52:13;;;;;;;26.77;13.75;;;;;;;;;;2073954;28;20045;-61
2023/10/01 05:53:14;;;;;;;29.00;13.90;;;;;;;;;;2074097;28;20041;-61
2023/10/01 05:54:22;;;;;;;27.33;13.57;;;;;;;;;;2073305;28;20069;-61
2023/10/01 05:55:24;;;;;;;29.88;14.40;;;;;;;;;;2073714;28;20494;-61
2023/10/01 05:56:36;;;;;;;24.55;12.68;;;;;;;;;;2073997;28;20030;-61
2023/10/01 05:57:37;;;;;;;24.17;12.77;;;;;;;;;;2073735;28;20045;-61
2023/10/01 05:58:38;;;;;;;26.15;12.85;;;;;;;;;;2073939;28;20477;-61
2023/10/01 05:59:39;;;;;;;26.60;13.40;;;;;;;;;;2073945;28;20057;-61
2023/10/01 06:00:53;;;;;;;29.98;12.23;;;;;;;;;;2073642;28;20461;-61
2023/10/01 06:01:54;;;;;;;26.60;11.93;;;;;;;;;;2074151;28;20470;-61
2023/10/01 06:03:01;;;;;;;25.25;11.90;;;;;;;;;;2074145;28;20033;-62
2023/10/01 06:04:04;;;;;;;23.67;11.23;;;;;;;;;;2074227;28;20037;-61
2023/10/01 06:05:22;;;;;;;24.10;12.75;;;;;;;;;;2074061;28;20485;-62
2023/10/01 06:06:26;;;;;;;24.60;12.27;;;;;;;;;;2074069;28;20056;-61
2023/10/01 06:07:26;;;;;;;25.10;12.90;;;;;;;;;;2073364;28;20050;-61
2023/10/01 06:08:32;;;;;;;22.73;11.65;;;;;;;;;;2073888;28;20069;-61
2023/10/01 06:09:34;;;;;;;25.15;12.35;;;;;;;;;;2074103;28;20489;-61
2023/10/01 06:10:35;;;;;;;27.83;11.65;;;;;;;;;;2074002;28;20034;-61
2023/10/01 06:11:39;;;;;;;25.30;11.25;;;;;;;;;;2073861;28;20030;-62
2023/10/01 06:12:50;;;;;;;23.70;11.45;;;;;;;;;;2074014;28;20040;-62
2023/10/01 06:13:54;;;;;;;23.75;11.88;;;;;;;;;;2073946;28;20471;-61
2023/10/01 06:15:08;;;;;;;24.25;11.55;;;;;;;;;;2073565;28;20038;-59
2023/10/01 06:16:11;;;;;;;24.13;12.27;;;;;;;;;;2074942;28;20037;-64
2023/10/01 06:17:12;;;;;;;28.60;12.25;;;;;;;;;;2075309;28;20394;-62
2023/10/01 06:18:13;;;;;;;23.58;11.98;;;;;;;;;;2075225;28;20037;-62
2023/10/01 06:19:14;;;;;;;26.67;13.05;;;;;;;;;;2074546;28;20390;-61
2023/10/01 06:20:23;;;;;;;25.70;12.13;;;;;;;;;;2074778;28;20466;-71
2023/10/01 06:21:25;;;;;;;25.05;11.68;;;;;;;;;;2075208;28;20037;-61
2023/10/01 06:22:26;;;;;;;23.23;9.98;;;;;;;;;;2073585;28;20037;-62
2023/10/01 06:23:27;;;;;;;28.70;13.05;;;;;;;;;;2074026;28;20029;-61
2023/10/01 06:24:27;;;;;;;25.38;13.02;;;;;;;;;;2073950;28;20033;-62
2023/10/01 06:25:40;;;;;;;25.55;11.77;;;;;;;;;;2073927;28;20046;-61
2023/10/01 06:26:45;;;;;;;23.33;11.63;;;;;;;;;;2074307;28;20038;-62
2023/10/01 06:27:48;;;;;;;25.88;12.80;;;;;;;;;;2074169;28;20450;-61
2023/10/01 06:28:49;;;;;;;25.50;12.55;;;;;;;;;;2074013;28;20046;-62
2023/10/01 06:29:49;;;;;;;26.92;12.68;;;;;;;;;;2073415;28;20482;-61